sensor_id;sensor_type;location;lat;lon;timestamp;temperature;humidity
50544;DHT22;41176;44.032;20.900;2023-12-14T00:01:21;12.50;99.90
50544;DHT22;41176;44.032;20.900;2023-12-14T00:03:47;12.40;99.90
50544;DHT22;41176;44.032;20.900;2023-12-14T00:06:14;12.30;99.90
50544;DHT22;41176;44.032;20.900;2023-12-14T00:08:40;12.20;99.90
50544;DHT22;41176;44.032;20.900;2023-12-14T00:11:07;12.10;99.90
50544;DHT22;41176;44.032;20.900;2023-12-14T00:13:33;12.10;99.90
50544;DHT22;41176;44.032;20.900;2023-12-14T00:15:59;11.90;99.90
50544;DHT22;41176;44.032;20.900;2023-12-14T00:18:28;11.80;99.90
50544;DHT22;41176;44.032;20.900;2023-12-14T00:20:54;11.80;99.90
50544;DHT22;41176;44.032;20.900;2023-12-14T00:23:20;11.70;99.90
50544;DHT22;41176;44.032;20.900;2023-12-14T00:25:46;11.70;99.90
50544;DHT22;41176;44.032;20.900;2023-12-14T00:28:12;11.60;99.90
50544;DHT22;41176;44.032;20.900;2023-12-14T00:30:38;11.60;99.90
50544;DHT22;41176;44.032;20.900;2023-12-14T00:33:04;11.50;99.90
50544;DHT22;41176;44.032;20.900;2023-12-14T00:35:29;11.60;99.90
50544;DHT22;41176;44.032;20.900;2023-12-14T00:37:58;11.60;99.90
50544;DHT22;41176;44.032;20.900;2023-12-14T00:40:24;11.60;99.90
50544;DHT22;41176;44.032;20.900;2023-12-14T00:42:53;11.70;99.90
50544;DHT22;41176;44.032;20.900;2023-12-14T00:45:24;11.70;99.90
50544;DHT22;41176;44.032;20.900;2023-12-14T00:48:14;11.70;99.90
50544;DHT22;41176;44.032;20.900;2023-12-14T00:50:42;11.70;99.90
50544;DHT22;41176;44.032;20.900;2023-12-14T00:53:13;11.70;99.90
50544;DHT22;41176;44.032;20.900;2023-12-14T00:55:38;11.80;99.90
50544;DHT22;41176;44.032;20.900;2023-12-14T00:58:07;11.80;99.90
50544;DHT22;41176;44.032;20.900;2023-12-14T01:00:43;11.80;99.90
50544;DHT22;41176;44.032;20.900;2023-12-14T01:03:12;11.80;99.90
50544;DHT22;41176;44.032;20.900;2023-12-14T01:05:38;11.70;99.90
50544;DHT22;41176;44.032;20.900;2023-12-14T01:08:16;11.70;99.90
50544;DHT22;41176;44.032;20.900;2023-12-14T01:10:52;11.70;99.90
50544;DHT22;41176;44.032;20.900;2023-12-14T01:13:23;11.70;99.90
50544;DHT22;41176;44.032;20.900;2023-12-14T01:15:51;11.70;99.90
50544;DHT22;41176;44.032;20.900;2023-12-14T01:18:22;11.60;99.90
50544;DHT22;41176;44.032;20.900;2023-12-14T01:20:58;11.70;99.90
50544;DHT22;41176;44.032;20.900;2023-12-14T01:23:56;11.60;99.90
50544;DHT22;41176;44.032;20.900;2023-12-14T01:26:29;11.70;99.90
50544;DHT22;41176;44.032;20.900;2023-12-14T01:29:27;11.70;99.90
50544;DHT22;41176;44.032;20.900;2023-12-14T01:32:42;11.70;99.90
50544;DHT22;41176;44.032;20.900;2023-12-14T01:36:02;11.70;99.90
50544;DHT22;41176;44.032;20.900;2023-12-14T01:38:28;11.70;99.90
50544;DHT22;41176;44.032;20.900;2023-12-14T01:41:28;11.70;99.90
50544;DHT22;41176;44.032;20.900;2023-12-14T01:44:04;11.70;99.90
50544;DHT22;41176;44.032;20.900;2023-12-14T01:47:13;11.70;99.90
50544;DHT22;41176;44.032;20.900;2023-12-14T01:56:14;11.70;99.90
50544;DHT22;41176;44.032;20.900;2023-12-14T01:58:46;11.70;99.90
50544;DHT22;41176;44.032;20.900;2023-12-14T02:03:57;11.60;99.90
50544;DHT22;41176;44.032;20.900;2023-12-14T02:06:25;11.60;99.90
50544;DHT22;41176;44.032;20.900;2023-12-14T02:08:54;11.60;99.90
50544;DHT22;41176;44.032;20.900;2023-12-14T02:11:20;11.60;99.90
50544;DHT22;41176;44.032;20.900;2023-12-14T02:13:46;11.60;99.90
50544;DHT22;41176;44.032;20.900;2023-12-14T02:16:14;11.60;99.90
50544;DHT22;41176;44.032;20.900;2023-12-14T02:18:43;11.60;99.90
50544;DHT22;41176;44.032;20.900;2023-12-14T02:21:15;11.60;99.90
50544;DHT22;41176;44.032;20.900;2023-12-14T02:23:44;11.60;99.90
50544;DHT22;41176;44.032;20.900;2023-12-14T02:26:13;11.60;99.90
50544;DHT22;41176;44.032;20.900;2023-12-14T02:28:42;11.70;99.90
50544;DHT22;41176;44.032;20.900;2023-12-14T02:31:08;11.70;99.90
50544;DHT22;41176;44.032;20.900;2023-12-14T02:33:34;11.60;99.90
50544;DHT22;41176;44.032;20.900;2023-12-14T02:36:00;11.60;99.90
50544;DHT22;41176;44.032;20.900;2023-12-14T02:38:29;11.70;99.90
50544;DHT22;41176;44.032;20.900;2023-12-14T02:41:03;11.60;99.90
50544;DHT22;41176;44.032;20.900;2023-12-14T02:43:39;11.70;99.90
50544;DHT22;41176;44.032;20.900;2023-12-14T02:46:08;11.60;99.90
50544;DHT22;41176;44.032;20.900;2023-12-14T02:48:41;11.60;99.90
50544;DHT22;41176;44.032;20.900;2023-12-14T02:51:12;11.60;99.90
50544;DHT22;41176;44.032;20.900;2023-12-14T02:53:44;11.60;99.90
50544;DHT22;41176;44.032;20.900;2023-12-14T02:56:10;11.60;99.90
50544;DHT22;41176;44.032;20.900;2023-12-14T02:58:38;11.60;99.90
50544;DHT22;41176;44.032;20.900;2023-12-14T03:01:07;11.60;99.90
50544;DHT22;41176;44.032;20.900;2023-12-14T03:03:33;11.60;99.90
50544;DHT22;41176;44.032;20.900;2023-12-14T03:06:00;11.60;99.90
50544;DHT22;41176;44.032;20.900;2023-12-14T03:08:29;11.50;99.90
50544;DHT22;41176;44.032;20.900;2023-12-14T03:10:55;11.50;99.90
50544;DHT22;41176;44.032;20.900;2023-12-14T03:13:21;11.50;99.90
50544;DHT22;41176;44.032;20.900;2023-12-14T03:15:49;11.50;99.90
50544;DHT22;41176;44.032;20.900;2023-12-14T03:18:15;11.50;99.90
50544;DHT22;41176;44.032;20.900;2023-12-14T03:20:43;11.50;99.90
50544;DHT22;41176;44.032;20.900;2023-12-14T03:23:14;11.50;99.90
50544;DHT22;41176;44.032;20.900;2023-12-14T03:25:47;11.30;99.90
50544;DHT22;41176;44.032;20.900;2023-12-14T03:28:14;11.40;99.90
50544;DHT22;41176;44.032;20.900;2023-12-14T03:30:50;11.40;99.90
50544;DHT22;41176;44.032;20.900;2023-12-14T04:19:15;11.10;99.90
50544;DHT22;41176;44.032;20.900;2023-12-14T04:21:48;11.20;99.90
50544;DHT22;41176;44.032;20.900;2023-12-14T05:33:39;10.30;99.90
50544;DHT22;41176;44.032;20.900;2023-12-14T05:36:06;10.30;99.90
50544;DHT22;41176;44.032;20.900;2023-12-14T05:38:38;10.30;99.90
50544;DHT22;41176;44.032;20.900;2023-12-14T05:41:04;10.30;99.90
50544;DHT22;41176;44.032;20.900;2023-12-14T05:43:30;10.30;99.90
50544;DHT22;41176;44.032;20.900;2023-12-14T05:46:04;10.30;99.90
50544;DHT22;41176;44.032;20.900;2023-12-14T06:15:20;10.40;99.90
50544;DHT22;41176;44.032;20.900;2023-12-14T06:31:21;10.00;99.90
50544;DHT22;41176;44.032;20.900;2023-12-14T06:33:47;10.00;99.90
50544;DHT22;41176;44.032;20.900;2023-12-14T06:36:16;9.90;99.90
50544;DHT22;41176;44.032;20.900;2023-12-14T06:38:43;9.90;99.90
50544;DHT22;41176;44.032;20.900;2023-12-14T06:41:27;9.90;99.90
50544;DHT22;41176;44.032;20.900;2023-12-14T06:43:53;9.90;99.90
50544;DHT22;41176;44.032;20.900;2023-12-14T06:46:20;9.90;99.90
50544;DHT22;41176;44.032;20.900;2023-12-14T06:48:46;9.90;99.90
50544;DHT22;41176;44.032;20.900;2023-12-14T06:51:12;9.90;99.90
50544;DHT22;41176;44.032;20.900;2023-12-14T06:53:41;9.80;99.90
50544;DHT22;41176;44.032;20.900;2023-12-14T06:56:07;9.80;99.90
50544;DHT22;41176;44.032;20.900;2023-12-14T06:58:43;9.90;99.90
50544;DHT22;41176;44.032;20.900;2023-12-14T07:01:13;9.90;99.90
50544;DHT22;41176;44.032;20.900;2023-12-14T07:03:41;9.90;99.90
50544;DHT22;41176;44.032;20.900;2023-12-14T07:06:17;9.90;99.90
50544;DHT22;41176;44.032;20.900;2023-12-14T07:08:44;9.90;99.90
50544;DHT22;41176;44.032;20.900;2023-12-14T07:11:10;9.90;99.90
50544;DHT22;41176;44.032;20.900;2023-12-14T07:13:37;9.90;99.90
50544;DHT22;41176;44.032;20.900;2023-12-14T07:16:07;9.80;99.90
50544;DHT22;41176;44.032;20.900;2023-12-14T07:18:37;9.70;99.90
50544;DHT22;41176;44.032;20.900;2023-12-14T07:21:04;9.70;99.90
50544;DHT22;41176;44.032;20.900;2023-12-14T07:23:30;9.70;99.90
50544;DHT22;41176;44.032;20.900;2023-12-14T07:25:55;9.70;99.90
50544;DHT22;41176;44.032;20.900;2023-12-14T07:28:22;9.70;99.90
50544;DHT22;41176;44.032;20.900;2023-12-14T07:30:48;9.70;99.90
50544;DHT22;41176;44.032;20.900;2023-12-14T07:33:17;9.60;99.90
50544;DHT22;41176;44.032;20.900;2023-12-14T07:35:43;9.60;99.90
50544;DHT22;41176;44.032;20.900;2023-12-14T07:38:10;9.70;99.90
50544;DHT22;41176;44.032;20.900;2023-12-14T07:40:36;9.80;99.90
50544;DHT22;41176;44.032;20.900;2023-12-14T07:43:01;9.80;99.90
50544;DHT22;41176;44.032;20.900;2023-12-14T07:45:27;9.80;99.90
50544;DHT22;41176;44.032;20.900;2023-12-14T07:47:53;9.80;99.90
50544;DHT22;41176;44.032;20.900;2023-12-14T07:50:19;9.70;99.90
50544;DHT22;41176;44.032;20.900;2023-12-14T07:52:45;9.80;99.90
50544;DHT22;41176;44.032;20.900;2023-12-14T07:55:11;9.80;99.90
50544;DHT22;41176;44.032;20.900;2023-12-14T07:57:39;9.80;99.90
50544;DHT22;41176;44.032;20.900;2023-12-14T08:00:06;9.80;99.90
50544;DHT22;41176;44.032;20.900;2023-12-14T08:02:34;9.80;99.90
50544;DHT22;41176;44.032;20.900;2023-12-14T08:04:59;9.90;99.90
50544;DHT22;41176;44.032;20.900;2023-12-14T08:07:25;9.90;99.90
50544;DHT22;41176;44.032;20.900;2023-12-14T08:09:55;10.00;99.90
50544;DHT22;41176;44.032;20.900;2023-12-14T08:12:22;10.00;99.90
50544;DHT22;41176;44.032;20.900;2023-12-14T08:14:47;9.90;99.90
50544;DHT22;41176;44.032;20.900;2023-12-14T08:17:13;10.00;99.90
50544;DHT22;41176;44.032;20.900;2023-12-14T08:19:39;10.10;99.90
50544;DHT22;41176;44.032;20.900;2023-12-14T08:22:05;10.00;99.90
50544;DHT22;41176;44.032;20.900;2023-12-14T08:24:30;10.00;99.90
50544;DHT22;41176;44.032;20.900;2023-12-14T08:26:56;9.90;99.90
50544;DHT22;41176;44.032;20.900;2023-12-14T08:29:22;9.80;99.90
50544;DHT22;41176;44.032;20.900;2023-12-14T08:31:48;9.80;99.90
50544;DHT22;41176;44.032;20.900;2023-12-14T08:34:14;9.80;99.90
50544;DHT22;41176;44.032;20.900;2023-12-14T08:36:40;9.70;99.90
50544;DHT22;41176;44.032;20.900;2023-12-14T08:39:05;9.60;99.90
50544;DHT22;41176;44.032;20.900;2023-12-14T08:41:32;9.70;99.90
50544;DHT22;41176;44.032;20.900;2023-12-14T08:43:58;9.60;99.90
50544;DHT22;41176;44.032;20.900;2023-12-14T08:46:23;9.60;99.90
50544;DHT22;41176;44.032;20.900;2023-12-14T08:48:49;9.70;99.90
50544;DHT22;41176;44.032;20.900;2023-12-14T08:51:15;9.80;99.90
50544;DHT22;41176;44.032;20.900;2023-12-14T08:53:41;9.70;99.90
50544;DHT22;41176;44.032;20.900;2023-12-14T08:56:08;9.70;99.90
50544;DHT22;41176;44.032;20.900;2023-12-14T08:58:34;9.70;99.90
50544;DHT22;41176;44.032;20.900;2023-12-14T09:01:00;9.70;99.90
50544;DHT22;41176;44.032;20.900;2023-12-14T09:03:25;9.60;99.90
50544;DHT22;41176;44.032;20.900;2023-12-14T09:05:51;9.50;99.90
50544;DHT22;41176;44.032;20.900;2023-12-14T09:08:18;9.50;99.90
50544;DHT22;41176;44.032;20.900;2023-12-14T09:10:43;9.40;99.90
50544;DHT22;41176;44.032;20.900;2023-12-14T09:13:09;9.50;99.90
50544;DHT22;41176;44.032;20.900;2023-12-14T09:15:35;9.50;99.90
50544;DHT22;41176;44.032;20.900;2023-12-14T09:18:01;9.40;99.90
50544;DHT22;41176;44.032;20.900;2023-12-14T09:20:28;9.50;99.90
50544;DHT22;41176;44.032;20.900;2023-12-14T09:22:54;9.60;99.90
50544;DHT22;41176;44.032;20.900;2023-12-14T09:25:19;9.70;99.90
50544;DHT22;41176;44.032;20.900;2023-12-14T09:27:45;9.60;99.90
50544;DHT22;41176;44.032;20.900;2023-12-14T09:30:11;9.70;99.90
50544;DHT22;41176;44.032;20.900;2023-12-14T09:32:38;9.70;99.90
50544;DHT22;41176;44.032;20.900;2023-12-14T09:35:05;9.70;99.90
50544;DHT22;41176;44.032;20.900;2023-12-14T09:37:32;9.80;99.90
50544;DHT22;41176;44.032;20.900;2023-12-14T09:39:57;9.80;99.90
50544;DHT22;41176;44.032;20.900;2023-12-14T09:42:23;9.90;99.90
50544;DHT22;41176;44.032;20.900;2023-12-14T09:44:50;9.90;99.90
50544;DHT22;41176;44.032;20.900;2023-12-14T09:47:18;9.90;99.90
50544;DHT22;41176;44.032;20.900;2023-12-14T09:49:45;9.90;99.90
50544;DHT22;41176;44.032;20.900;2023-12-14T09:52:11;9.90;99.90
50544;DHT22;41176;44.032;20.900;2023-12-14T09:54:37;9.90;99.90
50544;DHT22;41176;44.032;20.900;2023-12-14T09:57:03;9.80;99.90
50544;DHT22;41176;44.032;20.900;2023-12-14T09:59:29;9.80;99.90
50544;DHT22;41176;44.032;20.900;2023-12-14T10:02:15;9.80;99.90
50544;DHT22;41176;44.032;20.900;2023-12-14T10:04:43;9.80;99.90
50544;DHT22;41176;44.032;20.900;2023-12-14T10:07:09;9.80;99.90
50544;DHT22;41176;44.032;20.900;2023-12-14T10:09:36;9.90;99.90
50544;DHT22;41176;44.032;20.900;2023-12-14T10:12:07;9.90;99.90
50544;DHT22;41176;44.032;20.900;2023-12-14T10:14:34;9.90;99.90
50544;DHT22;41176;44.032;20.900;2023-12-14T10:17:17;9.80;99.90
50544;DHT22;41176;44.032;20.900;2023-12-14T10:19:44;9.90;99.90
50544;DHT22;41176;44.032;20.900;2023-12-14T10:22:11;10.00;99.90
50544;DHT22;41176;44.032;20.900;2023-12-14T10:24:37;10.00;99.90
50544;DHT22;41176;44.032;20.900;2023-12-14T10:27:08;10.00;99.90
50544;DHT22;41176;44.032;20.900;2023-12-14T10:29:35;10.10;99.90
50544;DHT22;41176;44.032;20.900;2023-12-14T10:32:05;10.10;99.90
50544;DHT22;41176;44.032;20.900;2023-12-14T10:34:35;10.20;99.90
50544;DHT22;41176;44.032;20.900;2023-12-14T10:37:03;10.20;99.90
50544;DHT22;41176;44.032;20.900;2023-12-14T10:39:30;10.20;99.90
50544;DHT22;41176;44.032;20.900;2023-12-14T10:41:57;10.30;99.90
50544;DHT22;41176;44.032;20.900;2023-12-14T10:44:27;10.30;99.90
50544;DHT22;41176;44.032;20.900;2023-12-14T10:46:58;10.20;99.90
50544;DHT22;41176;44.032;20.900;2023-12-14T10:49:27;10.20;99.90
50544;DHT22;41176;44.032;20.900;2023-12-14T10:51:55;10.20;99.90
50544;DHT22;41176;44.032;20.900;2023-12-14T10:54:24;10.20;99.90
50544;DHT22;41176;44.032;20.900;2023-12-14T10:56:59;10.20;99.90
50544;DHT22;41176;44.032;20.900;2023-12-14T10:59:26;10.30;99.90
50544;DHT22;41176;44.032;20.900;2023-12-14T11:01:55;10.30;99.90
50544;DHT22;41176;44.032;20.900;2023-12-14T11:04:26;10.30;99.90
50544;DHT22;41176;44.032;20.900;2023-12-14T11:06:53;10.30;99.90
50544;DHT22;41176;44.032;20.900;2023-12-14T11:09:22;10.30;99.90
50544;DHT22;41176;44.032;20.900;2023-12-14T11:14:24;10.40;99.90
50544;DHT22;41176;44.032;20.900;2023-12-14T11:16:53;10.50;99.90
50544;DHT22;41176;44.032;20.900;2023-12-14T11:21:49;10.70;99.90
50544;DHT22;41176;44.032;20.900;2023-12-14T11:24:22;10.70;99.90
50544;DHT22;41176;44.032;20.900;2023-12-14T11:26:51;10.70;99.90
50544;DHT22;41176;44.032;20.900;2023-12-14T11:29:19;10.80;99.90
50544;DHT22;41176;44.032;20.900;2023-12-14T11:31:47;10.80;99.90
50544;DHT22;41176;44.032;20.900;2023-12-14T11:34:15;10.70;99.90
50544;DHT22;41176;44.032;20.900;2023-12-14T11:36:41;10.80;99.90
50544;DHT22;41176;44.032;20.900;2023-12-14T11:39:10;10.80;99.90
50544;DHT22;41176;44.032;20.900;2023-12-14T11:41:36;10.90;99.90
50544;DHT22;41176;44.032;20.900;2023-12-14T11:44:04;10.90;99.90
50544;DHT22;41176;44.032;20.900;2023-12-14T11:46:30;10.90;99.90
50544;DHT22;41176;44.032;20.900;2023-12-14T11:48:57;10.90;99.90
50544;DHT22;41176;44.032;20.900;2023-12-14T11:51:24;11.00;99.90
50544;DHT22;41176;44.032;20.900;2023-12-14T11:53:51;11.10;99.90
50544;DHT22;41176;44.032;20.900;2023-12-14T11:56:18;11.20;99.90
50544;DHT22;41176;44.032;20.900;2023-12-14T11:58:44;11.30;99.90
50544;DHT22;41176;44.032;20.900;2023-12-14T12:01:12;11.40;99.90
50544;DHT22;41176;44.032;20.900;2023-12-14T12:03:38;11.40;99.90
50544;DHT22;41176;44.032;20.900;2023-12-14T12:06:05;11.50;99.90
50544;DHT22;41176;44.032;20.900;2023-12-14T12:08:30;11.40;99.90
50544;DHT22;41176;44.032;20.900;2023-12-14T12:10:57;11.40;99.90
50544;DHT22;41176;44.032;20.900;2023-12-14T12:13:23;11.40;99.90
50544;DHT22;41176;44.032;20.900;2023-12-14T12:15:48;11.50;99.90
50544;DHT22;41176;44.032;20.900;2023-12-14T12:18:17;11.50;99.90
50544;DHT22;41176;44.032;20.900;2023-12-14T12:20:43;11.50;99.90
50544;DHT22;41176;44.032;20.900;2023-12-14T12:23:09;11.60;99.90
50544;DHT22;41176;44.032;20.900;2023-12-14T12:25:35;11.60;99.90
50544;DHT22;41176;44.032;20.900;2023-12-14T12:28:02;11.60;99.90
50544;DHT22;41176;44.032;20.900;2023-12-14T12:30:29;11.60;99.90
50544;DHT22;41176;44.032;20.900;2023-12-14T12:32:54;11.50;99.90
50544;DHT22;41176;44.032;20.900;2023-12-14T12:35:22;11.60;99.90
50544;DHT22;41176;44.032;20.900;2023-12-14T12:37:48;11.60;99.90
50544;DHT22;41176;44.032;20.900;2023-12-14T12:40:19;11.60;99.90
50544;DHT22;41176;44.032;20.900;2023-12-14T12:42:46;11.60;99.90
50544;DHT22;41176;44.032;20.900;2023-12-14T12:45:15;11.70;99.90
50544;DHT22;41176;44.032;20.900;2023-12-14T12:47:42;11.60;99.90
50544;DHT22;41176;44.032;20.900;2023-12-14T12:50:08;11.60;99.90
50544;DHT22;41176;44.032;20.900;2023-12-14T12:52:34;11.60;99.90
50544;DHT22;41176;44.032;20.900;2023-12-14T12:54:59;11.60;99.90
50544;DHT22;41176;44.032;20.900;2023-12-14T12:57:25;11.60;99.90
50544;DHT22;41176;44.032;20.900;2023-12-14T12:59:51;11.60;99.90
50544;DHT22;41176;44.032;20.900;2023-12-14T13:02:17;11.60;99.90
50544;DHT22;41176;44.032;20.900;2023-12-14T13:04:43;11.60;99.90
50544;DHT22;41176;44.032;20.900;2023-12-14T13:07:09;11.50;99.90
50544;DHT22;41176;44.032;20.900;2023-12-14T13:09:34;11.50;99.90
50544;DHT22;41176;44.032;20.900;2023-12-14T13:12:00;11.50;99.90
50544;DHT22;41176;44.032;20.900;2023-12-14T13:14:26;11.40;99.90
50544;DHT22;41176;44.032;20.900;2023-12-14T13:16:52;11.40;99.90
50544;DHT22;41176;44.032;20.900;2023-12-14T13:19:17;11.40;99.90
50544;DHT22;41176;44.032;20.900;2023-12-14T13:21:43;11.40;99.90
50544;DHT22;41176;44.032;20.900;2023-12-14T13:24:09;11.40;99.90
50544;DHT22;41176;44.032;20.900;2023-12-14T13:26:34;11.40;99.90
50544;DHT22;41176;44.032;20.900;2023-12-14T13:29:00;11.40;99.90
50544;DHT22;41176;44.032;20.900;2023-12-14T13:31:26;11.40;99.90
50544;DHT22;41176;44.032;20.900;2023-12-14T13:33:52;11.30;99.90
50544;DHT22;41176;44.032;20.900;2023-12-14T13:36:19;11.40;99.90
50544;DHT22;41176;44.032;20.900;2023-12-14T13:38:45;11.30;99.90
50544;DHT22;41176;44.032;20.900;2023-12-14T13:41:11;11.30;99.90
50544;DHT22;41176;44.032;20.900;2023-12-14T13:43:36;11.30;99.90
50544;DHT22;41176;44.032;20.900;2023-12-14T13:46:03;11.40;99.90
50544;DHT22;41176;44.032;20.900;2023-12-14T13:48:29;11.30;99.90
50544;DHT22;41176;44.032;20.900;2023-12-14T13:50:55;11.30;99.90
50544;DHT22;41176;44.032;20.900;2023-12-14T13:53:21;11.30;99.90
50544;DHT22;41176;44.032;20.900;2023-12-14T13:55:47;11.30;99.90
50544;DHT22;41176;44.032;20.900;2023-12-14T13:58:15;11.30;99.90
50544;DHT22;41176;44.032;20.900;2023-12-14T14:00:43;11.30;99.90
50544;DHT22;41176;44.032;20.900;2023-12-14T14:03:09;11.30;99.90
50544;DHT22;41176;44.032;20.900;2023-12-14T14:05:34;11.30;99.90
50544;DHT22;41176;44.032;20.900;2023-12-14T14:08:01;11.30;99.90
50544;DHT22;41176;44.032;20.900;2023-12-14T14:10:27;11.30;99.90
50544;DHT22;41176;44.032;20.900;2023-12-14T14:12:53;11.30;99.90
50544;DHT22;41176;44.032;20.900;2023-12-14T14:15:19;11.20;99.90
50544;DHT22;41176;44.032;20.900;2023-12-14T14:17:48;11.20;99.90
50544;DHT22;41176;44.032;20.900;2023-12-14T14:20:17;11.20;99.90
50544;DHT22;41176;44.032;20.900;2023-12-14T14:22:43;11.10;99.90
50544;DHT22;41176;44.032;20.900;2023-12-14T14:25:10;11.10;99.90
50544;DHT22;41176;44.032;20.900;2023-12-14T14:27:36;11.00;99.90
50544;DHT22;41176;44.032;20.900;2023-12-14T14:30:02;11.00;99.90
50544;DHT22;41176;44.032;20.900;2023-12-14T14:32:28;11.00;99.90
50544;DHT22;41176;44.032;20.900;2023-12-14T14:34:57;10.90;99.90
50544;DHT22;41176;44.032;20.900;2023-12-14T14:37:24;10.90;99.90
50544;DHT22;41176;44.032;20.900;2023-12-14T14:39:50;10.90;99.90
50544;DHT22;41176;44.032;20.900;2023-12-14T14:42:16;10.80;99.90
50544;DHT22;41176;44.032;20.900;2023-12-14T14:44:42;10.80;99.90
50544;DHT22;41176;44.032;20.900;2023-12-14T14:47:07;10.80;99.90
50544;DHT22;41176;44.032;20.900;2023-12-14T14:49:33;10.90;99.90
50544;DHT22;41176;44.032;20.900;2023-12-14T14:51:59;10.80;99.90
50544;DHT22;41176;44.032;20.900;2023-12-14T14:54:24;10.80;99.90
50544;DHT22;41176;44.032;20.900;2023-12-14T14:56:51;10.80;99.90
50544;DHT22;41176;44.032;20.900;2023-12-14T14:59:16;10.70;99.90
50544;DHT22;41176;44.032;20.900;2023-12-14T15:01:42;10.70;99.90
50544;DHT22;41176;44.032;20.900;2023-12-14T15:04:08;10.70;99.90
50544;DHT22;41176;44.032;20.900;2023-12-14T15:06:34;10.70;99.90
50544;DHT22;41176;44.032;20.900;2023-12-14T15:09:00;10.60;99.90
50544;DHT22;41176;44.032;20.900;2023-12-14T15:11:26;10.70;99.90
50544;DHT22;41176;44.032;20.900;2023-12-14T15:13:52;10.70;99.90
50544;DHT22;41176;44.032;20.900;2023-12-14T15:16:17;10.70;99.90
50544;DHT22;41176;44.032;20.900;2023-12-14T15:18:52;10.60;99.90
50544;DHT22;41176;44.032;20.900;2023-12-14T15:21:19;10.70;99.90
50544;DHT22;41176;44.032;20.900;2023-12-14T15:23:45;10.60;99.90
50544;DHT22;41176;44.032;20.900;2023-12-14T15:26:13;10.60;99.90
50544;DHT22;41176;44.032;20.900;2023-12-14T15:28:39;10.60;99.90
50544;DHT22;41176;44.032;20.900;2023-12-14T15:31:06;10.70;99.90
50544;DHT22;41176;44.032;20.900;2023-12-14T15:33:31;10.60;99.90
50544;DHT22;41176;44.032;20.900;2023-12-14T15:35:58;10.60;99.90
50544;DHT22;41176;44.032;20.900;2023-12-14T15:38:24;10.60;99.90
50544;DHT22;41176;44.032;20.900;2023-12-14T15:40:49;10.50;99.90
50544;DHT22;41176;44.032;20.900;2023-12-14T15:43:15;10.50;99.90
50544;DHT22;41176;44.032;20.900;2023-12-14T15:45:42;10.50;99.90
50544;DHT22;41176;44.032;20.900;2023-12-14T15:48:09;10.50;99.90
50544;DHT22;41176;44.032;20.900;2023-12-14T15:50:34;10.40;99.90
50544;DHT22;41176;44.032;20.900;2023-12-14T15:53:00;10.50;99.90
50544;DHT22;41176;44.032;20.900;2023-12-14T15:55:26;10.50;99.90
50544;DHT22;41176;44.032;20.900;2023-12-14T15:57:52;10.40;99.90
50544;DHT22;41176;44.032;20.900;2023-12-14T16:00:19;10.40;99.90
50544;DHT22;41176;44.032;20.900;2023-12-14T16:02:45;10.40;99.90
50544;DHT22;41176;44.032;20.900;2023-12-14T16:05:11;10.40;99.90
50544;DHT22;41176;44.032;20.900;2023-12-14T16:07:37;10.40;99.90
50544;DHT22;41176;44.032;20.900;2023-12-14T16:10:03;10.40;99.90
50544;DHT22;41176;44.032;20.900;2023-12-14T16:12:29;10.40;99.90
50544;DHT22;41176;44.032;20.900;2023-12-14T16:14:55;10.40;99.90
50544;DHT22;41176;44.032;20.900;2023-12-14T16:17:23;10.40;99.90
50544;DHT22;41176;44.032;20.900;2023-12-14T16:19:49;10.30;99.90
50544;DHT22;41176;44.032;20.900;2023-12-14T16:22:15;10.30;99.90
50544;DHT22;41176;44.032;20.900;2023-12-14T16:24:44;10.30;99.90
50544;DHT22;41176;44.032;20.900;2023-12-14T16:27:10;10.30;99.90
50544;DHT22;41176;44.032;20.900;2023-12-14T16:29:36;10.30;99.90
50544;DHT22;41176;44.032;20.900;2023-12-14T16:32:06;10.20;99.90
50544;DHT22;41176;44.032;20.900;2023-12-14T16:34:32;10.20;99.90
50544;DHT22;41176;44.032;20.900;2023-12-14T16:36:59;10.20;99.90
50544;DHT22;41176;44.032;20.900;2023-12-14T16:39:24;10.20;99.90
50544;DHT22;41176;44.032;20.900;2023-12-14T16:41:53;10.20;99.90
50544;DHT22;41176;44.032;20.900;2023-12-14T16:44:19;10.20;99.90
50544;DHT22;41176;44.032;20.900;2023-12-14T16:46:44;10.20;99.90
50544;DHT22;41176;44.032;20.900;2023-12-14T16:49:10;10.30;99.90
50544;DHT22;41176;44.032;20.900;2023-12-14T16:51:36;10.30;99.90
50544;DHT22;41176;44.032;20.900;2023-12-14T16:54:02;10.30;99.90
50544;DHT22;41176;44.032;20.900;2023-12-14T16:56:29;10.30;99.90
50544;DHT22;41176;44.032;20.900;2023-12-14T16:58:58;10.30;99.90
50544;DHT22;41176;44.032;20.900;2023-12-14T17:01:24;10.30;99.90
50544;DHT22;41176;44.032;20.900;2023-12-14T17:03:50;10.30;99.90
50544;DHT22;41176;44.032;20.900;2023-12-14T17:06:20;10.30;99.90
50544;DHT22;41176;44.032;20.900;2023-12-14T17:08:46;10.30;99.90
50544;DHT22;41176;44.032;20.900;2023-12-14T17:11:12;10.30;99.90
50544;DHT22;41176;44.032;20.900;2023-12-14T17:13:39;10.30;99.90
50544;DHT22;41176;44.032;20.900;2023-12-14T17:16:18;10.20;99.90
50544;DHT22;41176;44.032;20.900;2023-12-14T17:18:44;10.10;99.90
50544;DHT22;41176;44.032;20.900;2023-12-14T17:21:24;10.20;99.90
50544;DHT22;41176;44.032;20.900;2023-12-14T17:23:51;10.10;99.90
50544;DHT22;41176;44.032;20.900;2023-12-14T17:26:17;10.10;99.90
50544;DHT22;41176;44.032;20.900;2023-12-14T17:28:55;10.10;99.90
50544;DHT22;41176;44.032;20.900;2023-12-14T17:31:21;10.20;99.90
50544;DHT22;41176;44.032;20.900;2023-12-14T17:33:48;10.20;99.90
50544;DHT22;41176;44.032;20.900;2023-12-14T17:36:14;10.10;99.90
50544;DHT22;41176;44.032;20.900;2023-12-14T17:38:40;10.20;99.90
50544;DHT22;41176;44.032;20.900;2023-12-14T17:41:10;10.10;99.90
50544;DHT22;41176;44.032;20.900;2023-12-14T17:43:38;10.10;99.90
50544;DHT22;41176;44.032;20.900;2023-12-14T17:46:04;10.10;99.90
50544;DHT22;41176;44.032;20.900;2023-12-14T17:48:33;10.10;99.90
50544;DHT22;41176;44.032;20.900;2023-12-14T17:51:02;10.10;99.90
50544;DHT22;41176;44.032;20.900;2023-12-14T17:53:28;10.10;99.90
50544;DHT22;41176;44.032;20.900;2023-12-14T17:55:55;10.20;99.90
50544;DHT22;41176;44.032;20.900;2023-12-14T17:58:21;10.10;99.90
50544;DHT22;41176;44.032;20.900;2023-12-14T18:00:47;10.10;99.90
50544;DHT22;41176;44.032;20.900;2023-12-14T18:03:13;10.10;99.90
50544;DHT22;41176;44.032;20.900;2023-12-14T18:05:39;10.10;99.90
50544;DHT22;41176;44.032;20.900;2023-12-14T18:08:04;10.10;99.90
50544;DHT22;41176;44.032;20.900;2023-12-14T18:10:30;10.10;99.90
50544;DHT22;41176;44.032;20.900;2023-12-14T18:12:56;10.10;99.90
50544;DHT22;41176;44.032;20.900;2023-12-14T18:15:27;10.10;99.90